createdAt,value
2018-05-08T00:01:48.177Z,22.50
2018-05-08T00:04:15.704Z,22.30
2018-05-08T00:06:43.185Z,22.60
2018-05-08T00:09:10.678Z,22.70
2018-05-08T00:11:38.189Z,22.70
2018-05-08T00:14:05.734Z,22.80
2018-05-08T00:16:33.236Z,22.50
2018-05-08T00:19:00.787Z,23.10
2018-05-08T00:21:28.988Z,22.70
2018-05-08T00:23:56.472Z,22.80
2018-05-08T00:26:24.775Z,22.70
2018-05-08T00:28:52.262Z,22.80
2018-05-08T00:31:19.820Z,22.20
2018-05-08T00:33:47.427Z,22.60
2018-05-08T00:36:15.657Z,22.60
2018-05-08T00:38:43.272Z,22.70
2018-05-08T00:41:10.735Z,22.60
2018-05-08T00:43:38.478Z,22.60
2018-05-08T00:46:06.889Z,22.70
2018-05-08T00:48:34.360Z,22.70
2018-05-08T00:51:01.854Z,22.60
2018-05-08T00:53:29.438Z,22.40
2018-05-08T00:55:57.831Z,22.20
2018-05-08T00:58:25.289Z,22.30
2018-05-08T01:00:52.888Z,23.00
2018-05-08T01:03:20.376Z,22.70
2018-05-08T01:05:49.198Z,22.90
2018-05-08T01:08:16.778Z,22.40
2018-05-08T01:10:44.298Z,22.40
2018-05-08T01:13:12.568Z,21.90
2018-05-08T01:15:40.800Z,22.20
2018-05-08T01:18:08.302Z,22.40
2018-05-08T01:20:36.564Z,22.40
2018-05-08T01:23:04.067Z,22.50
2018-05-08T01:25:31.535Z,22.70
2018-05-08T01:27:59.031Z,22.20
2018-05-08T01:30:26.539Z,22.50
2018-05-08T01:32:54.034Z,22.50
2018-05-08T01:35:21.526Z,22.50
2018-05-08T01:37:49.754Z,22.60
2018-05-08T01:40:17.268Z,22.70
2018-05-08T01:42:45.536Z,22.80
2018-05-08T01:45:13.783Z,23.00
2018-05-08T01:47:41.302Z,23.00
2018-05-08T01:50:08.778Z,22.80
2018-05-08T01:52:36.275Z,22.80
2018-05-08T01:55:03.763Z,22.80
2018-05-08T01:57:31.302Z,23.60
2018-05-08T01:59:59.576Z,22.90
2018-05-08T02:02:27.880Z,23.10
2018-05-08T02:04:55.421Z,23.10
2018-05-08T02:07:23.679Z,23.20
2018-05-08T02:09:52.061Z,23.20
2018-05-08T02:12:19.551Z,23.10
2018-05-08T02:14:47.061Z,23.40
2018-05-08T02:17:14.580Z,23.50
2018-05-08T02:19:42.103Z,23.20
2018-05-08T02:22:10.379Z,22.90
2018-05-08T02:24:38.647Z,23.40
2018-05-08T02:27:06.143Z,23.50
2018-05-08T02:29:33.632Z,23.30
2018-05-08T02:32:01.127Z,23.20
2018-05-08T02:34:29.378Z,23.60
2018-05-08T02:36:56.884Z,23.70
2018-05-08T02:39:24.387Z,23.70
2018-05-08T02:41:51.887Z,23.40
2018-05-08T02:44:20.146Z,23.50
2018-05-08T02:46:47.644Z,23.60
2018-05-08T02:49:15.125Z,23.30
2018-05-08T02:51:42.594Z,23.30
2018-05-08T02:54:10.193Z,23.40
2018-05-08T02:56:38.458Z,23.70
2018-05-08T02:59:05.974Z,23.60
2018-05-08T03:01:33.478Z,23.40
2018-05-08T03:04:01.734Z,23.80
2018-05-08T03:06:29.236Z,23.80
2018-05-08T03:08:56.728Z,23.70
2018-05-08T03:11:24.220Z,23.60
2018-05-08T03:13:51.701Z,23.70
2018-05-08T03:16:20.070Z,23.70
2018-05-08T03:18:48.455Z,23.70
2018-05-08T03:21:16.713Z,23.70
2018-05-08T03:23:44.973Z,23.80
2018-05-08T03:26:12.465Z,23.80
2018-05-08T03:28:40.705Z,23.80
2018-05-08T03:31:08.218Z,23.80
2018-05-08T03:33:35.739Z,23.70
2018-05-08T03:36:04.039Z,24.30
2018-05-08T03:38:31.525Z,24.30
2018-05-08T03:40:59.167Z,23.70
2018-05-08T03:43:26.659Z,24.00
2018-05-08T03:45:54.279Z,24.00
2018-05-08T03:48:21.794Z,23.90
2018-05-08T03:50:49.304Z,24.60
2018-05-08T03:53:16.805Z,23.90
2018-05-08T03:55:44.390Z,24.00
2018-05-08T03:58:12.677Z,23.80
2018-05-08T04:00:53.305Z,23.80
2018-05-08T04:03:32.744Z,23.80
2018-05-08T04:06:00.241Z,24.20
2018-05-08T04:08:32.372Z,24.60
2018-05-08T04:10:59.877Z,24.60
2018-05-08T04:13:27.415Z,24.20
2018-05-08T04:15:55.762Z,24.30
2018-05-08T04:18:25.121Z,24.30
2018-05-08T04:20:52.672Z,24.50
2018-05-08T04:23:20.943Z,24.40
2018-05-08T04:25:49.216Z,24.60
2018-05-08T04:28:16.710Z,24.60
2018-05-08T04:30:44.218Z,24.50
2018-05-08T04:33:11.700Z,25.00
2018-05-08T04:35:39.222Z,25.40
2018-05-08T04:38:06.907Z,24.90
2018-05-08T04:40:35.182Z,25.30
2018-05-08T04:43:03.466Z,25.30
2018-05-08T04:45:31.764Z,25.10
2018-05-08T04:47:59.326Z,25.20
2018-05-08T04:50:26.851Z,25.20
2018-05-08T04:52:54.392Z,25.10
2018-05-08T04:55:22.024Z,25.20
2018-05-08T04:57:49.548Z,25.20
2018-05-08T05:00:17.090Z,25.30
2018-05-08T05:02:45.397Z,25.30
2018-05-08T05:05:13.737Z,25.30
2018-05-08T05:07:41.196Z,25.30
2018-05-08T05:10:09.430Z,25.40
2018-05-08T05:12:36.945Z,25.90
2018-05-08T05:15:05.274Z,25.50
2018-05-08T05:17:32.786Z,25.40
2018-05-08T05:20:00.360Z,26.50
2018-05-08T05:22:27.896Z,27.00
2018-05-08T05:24:56.198Z,26.50
2018-05-08T05:27:23.740Z,26.40
2018-05-08T05:32:26.899Z,26.50
2018-05-08T05:34:54.365Z,26.70
2018-05-08T05:37:21.872Z,26.40
2018-05-08T05:39:49.389Z,27.00
2018-05-08T05:42:16.885Z,27.10
2018-05-08T05:44:44.395Z,27.20
2018-05-08T05:47:11.891Z,26.90
2018-05-08T05:49:40.165Z,27.50
2018-05-08T05:52:08.399Z,27.20
2018-05-08T05:54:35.885Z,27.30
2018-05-08T05:57:04.167Z,27.90
2018-05-08T05:59:32.472Z,27.50
2018-05-08T06:01:59.993Z,27.50
2018-05-08T06:04:27.493Z,27.90
2018-05-08T06:06:54.971Z,28.10
2018-05-08T06:09:22.501Z,27.60
2018-05-08T06:11:50.070Z,27.00
2018-05-08T06:14:18.343Z,27.20
2018-05-08T06:16:45.878Z,27.40
2018-05-08T06:21:48.100Z,27.90
2018-05-08T06:24:15.605Z,26.90
2018-05-08T06:26:43.903Z,27.70
2018-05-08T06:29:12.204Z,27.40
2018-05-08T06:31:39.698Z,27.40
2018-05-08T06:34:07.245Z,27.50
2018-05-08T06:36:34.755Z,27.20
2018-05-08T06:39:03.015Z,27.30
2018-05-08T06:41:31.286Z,27.40
2018-05-08T06:43:58.777Z,26.90
2018-05-08T06:46:26.282Z,27.00
2018-05-08T06:48:53.765Z,26.70
2018-05-08T06:51:22.052Z,26.80
2018-05-08T06:53:50.277Z,25.70
2018-05-08T06:56:17.796Z,25.60
2018-05-08T06:58:45.315Z,27.00
2018-05-08T07:01:12.932Z,26.70
2018-05-08T07:03:40.446Z,26.60
2018-05-08T07:06:07.920Z,26.70
2018-05-08T07:08:36.285Z,26.60
2018-05-08T07:11:03.752Z,26.60
2018-05-08T07:13:32.040Z,25.60
2018-05-08T07:16:00.489Z,25.60
2018-05-08T07:18:28.590Z,25.80
2018-05-08T07:20:56.824Z,26.50
2018-05-08T07:23:24.418Z,26.50
2018-05-08T07:25:52.642Z,25.70
2018-05-08T07:28:20.249Z,25.70
2018-05-08T07:30:48.549Z,25.70
2018-05-08T07:33:16.799Z,27.40
2018-05-08T07:35:45.082Z,27.10
2018-05-08T07:38:13.401Z,26.80
2018-05-08T07:40:41.632Z,27.00
2018-05-08T07:43:09.920Z,26.50
2018-05-08T07:45:38.219Z,26.40
2018-05-08T07:48:05.736Z,26.40
2018-05-08T07:50:34.006Z,25.80
2018-05-08T07:53:01.510Z,25.70
2018-05-08T07:55:29.015Z,25.80
2018-05-08T07:57:56.509Z,26.30
2018-05-08T08:00:24.019Z,25.80
2018-05-08T08:02:51.494Z,26.00
2018-05-08T08:05:18.986Z,25.80
2018-05-08T08:07:46.499Z,25.70
2018-05-08T08:10:14.008Z,25.70
2018-05-08T08:12:41.486Z,25.70
2018-05-08T08:15:08.997Z,25.70
2018-05-08T08:17:37.268Z,25.30
2018-05-08T08:20:04.789Z,25.30
2018-05-08T08:22:32.290Z,25.80
2018-05-08T08:25:00.562Z,25.80
2018-05-08T08:27:28.809Z,25.80
2018-05-08T08:29:56.437Z,25.80
2018-05-08T08:32:23.905Z,25.80
2018-05-08T08:34:51.402Z,25.80
2018-05-08T08:37:19.057Z,25.80
2018-05-08T08:39:46.582Z,25.80
2018-05-08T08:42:14.058Z,25.80
2018-05-08T08:44:41.694Z,25.80
2018-05-08T08:47:09.172Z,25.80
2018-05-08T08:49:36.688Z,25.80
2018-05-08T08:52:04.162Z,26.30
2018-05-08T08:54:31.675Z,25.80
2018-05-08T08:56:59.965Z,25.40
2018-05-08T08:59:27.477Z,25.80
2018-05-08T09:01:55.037Z,26.20
2018-05-08T09:04:22.529Z,26.20
2018-05-08T09:06:50.850Z,26.90
2018-05-08T09:09:18.428Z,26.40
2018-05-08T09:11:45.938Z,26.20
2018-05-08T09:14:14.176Z,26.90
2018-05-08T09:16:41.740Z,26.90
2018-05-08T09:19:09.211Z,26.80
2018-05-08T09:21:36.746Z,27.00
2018-05-08T09:24:04.257Z,26.30
2018-05-08T09:26:31.823Z,26.60
2018-05-08T09:28:59.311Z,26.40
2018-05-08T09:31:26.861Z,26.20
2018-05-08T09:33:54.494Z,25.90
2018-05-08T09:36:22.042Z,26.50
2018-05-08T09:38:50.283Z,26.30
2018-05-08T09:41:17.769Z,26.30
2018-05-08T09:43:46.075Z,27.30
2018-05-08T09:46:13.561Z,27.30
2018-05-08T09:48:41.057Z,28.20
2018-05-08T09:51:09.333Z,27.30
2018-05-08T09:53:36.846Z,27.30
2018-05-08T09:56:04.329Z,27.30
2018-05-08T09:58:31.813Z,27.50
2018-05-08T10:01:00.156Z,27.70
2018-05-08T10:03:27.572Z,27.60
2018-05-08T10:05:55.043Z,27.50
2018-05-08T10:08:22.581Z,27.60
2018-05-08T10:10:50.062Z,27.40
2018-05-08T10:13:17.599Z,27.00
2018-05-08T10:15:45.735Z,26.80
2018-05-08T10:18:14.036Z,27.10
2018-05-08T10:20:42.375Z,26.50
2018-05-08T10:23:09.758Z,26.50
2018-05-08T10:25:38.028Z,26.10
2018-05-08T10:28:06.258Z,26.10
2018-05-08T10:30:33.782Z,26.10
2018-05-08T10:33:01.387Z,26.00
2018-05-08T10:35:29.627Z,25.50
2018-05-08T10:37:57.120Z,25.50
2018-05-08T10:40:24.642Z,25.70
2018-05-08T10:42:52.180Z,25.90
2018-05-08T10:45:20.462Z,26.10
2018-05-08T10:47:48.000Z,26.10
2018-05-08T10:50:16.269Z,26.50
2018-05-08T10:52:43.841Z,26.60
2018-05-08T10:55:12.099Z,26.40
2018-05-08T10:57:39.588Z,26.40
2018-05-08T11:00:07.096Z,26.40
2018-05-08T11:02:34.945Z,27.00
2018-05-08T11:05:02.548Z,26.80
2018-05-08T11:07:30.826Z,26.20
2018-05-08T11:09:59.095Z,25.90
2018-05-08T11:12:27.483Z,26.60
2018-05-08T11:14:54.978Z,26.60
2018-05-08T11:17:22.480Z,27.20
2018-05-08T11:19:50.087Z,25.90
2018-05-08T11:22:17.570Z,26.60
2018-05-08T11:24:45.070Z,25.90
2018-05-08T11:27:13.318Z,26.70
2018-05-08T11:29:40.901Z,26.70
2018-05-08T11:32:09.154Z,25.90
2018-05-08T11:34:36.683Z,25.90
2018-05-08T11:37:04.181Z,25.90
2018-05-08T11:39:31.668Z,25.90
2018-05-08T11:41:59.166Z,25.90
2018-05-08T11:44:26.658Z,25.90
2018-05-08T11:46:55.042Z,26.20
2018-05-08T11:49:23.313Z,25.90
2018-05-08T11:51:50.808Z,25.80
2018-05-08T11:54:18.356Z,25.90
2018-05-08T11:56:45.888Z,25.90
2018-05-08T11:59:13.466Z,25.90
2018-05-08T12:01:41.023Z,25.90
2018-05-08T12:04:09.313Z,25.80
2018-05-08T12:06:36.853Z,25.90
2018-05-08T12:09:05.166Z,26.10
2018-05-08T12:11:33.411Z,25.90
2018-05-08T12:14:01.698Z,25.80
2018-05-08T12:16:29.230Z,25.80
2018-05-08T12:18:57.477Z,25.90
2018-05-08T12:21:24.947Z,25.80
2018-05-08T12:23:52.457Z,25.80
2018-05-08T12:26:19.966Z,25.80
2018-05-08T12:28:47.563Z,25.80
2018-05-08T12:31:15.029Z,25.80
2018-05-08T12:33:42.547Z,25.80
2018-05-08T12:36:10.838Z,25.90
2018-05-08T12:38:38.324Z,25.90
2018-05-08T12:41:05.833Z,26.40
2018-05-08T12:43:33.333Z,25.80
2018-05-08T12:46:00.871Z,25.80
2018-05-08T12:48:29.127Z,25.60
2018-05-08T12:50:57.393Z,25.90
2018-05-08T12:53:25.675Z,25.80
2018-05-08T12:55:53.208Z,25.90
2018-05-08T12:58:20.714Z,25.80
2018-05-08T13:00:48.999Z,24.40
2018-05-08T13:03:16.521Z,24.40
2018-05-08T13:05:44.238Z,25.80
2018-05-08T13:08:12.276Z,25.80
2018-05-08T13:10:40.528Z,25.90
2018-05-08T13:13:08.028Z,25.90
2018-05-08T13:15:35.508Z,25.90
2018-05-08T13:18:03.006Z,25.80
2018-05-08T13:20:30.504Z,25.80
2018-05-08T13:22:58.012Z,25.40
2018-05-08T13:25:25.484Z,25.80
2018-05-08T13:27:54.499Z,24.20
2018-05-08T13:30:22.781Z,25.00
2018-05-08T13:32:50.286Z,25.00
2018-05-08T13:35:18.373Z,25.10
2018-05-08T13:37:45.868Z,25.80
2018-05-08T13:40:13.376Z,25.10
2018-05-08T13:42:40.845Z,25.20
2018-05-08T13:45:08.339Z,25.90
2018-05-08T13:47:35.895Z,24.70
2018-05-08T13:50:04.123Z,24.00
2018-05-08T13:52:31.635Z,24.00
2018-05-08T13:54:59.222Z,24.00
2018-05-08T13:57:26.765Z,23.50
2018-05-08T13:59:54.840Z,23.80
2018-05-08T14:02:22.368Z,23.70
2018-05-08T14:04:49.860Z,23.60
2018-05-08T14:07:17.347Z,23.40
2018-05-08T14:09:44.927Z,23.40
2018-05-08T14:12:12.457Z,23.60
2018-05-08T14:14:39.950Z,23.60
2018-05-08T14:17:07.483Z,22.80
2018-05-08T14:19:34.969Z,23.00
2018-05-08T14:22:03.219Z,22.90
2018-05-08T14:24:30.790Z,22.40
2018-05-08T14:26:58.269Z,22.60
2018-05-08T14:29:26.551Z,22.70
2018-05-08T14:31:54.021Z,22.80
2018-05-08T14:34:21.543Z,22.50
2018-05-08T14:36:53.435Z,22.80
2018-05-08T14:39:21.255Z,22.80
2018-05-08T14:41:48.833Z,22.80
2018-05-08T14:44:17.057Z,22.70
2018-05-08T14:46:44.547Z,22.70
2018-05-08T14:49:12.060Z,22.30
2018-05-08T14:51:39.574Z,22.50
2018-05-08T14:54:07.039Z,21.80
2018-05-08T14:56:35.289Z,21.30
2018-05-08T14:59:02.908Z,21.30
2018-05-08T15:01:30.402Z,22.10
2018-05-08T15:03:57.894Z,22.40
2018-05-08T15:06:26.216Z,21.50
2018-05-08T15:08:54.405Z,21.30
2018-05-08T15:11:21.906Z,21.30
2018-05-08T15:13:50.155Z,22.00
2018-05-08T15:16:17.655Z,22.00
2018-05-08T15:18:45.275Z,21.70
2018-05-08T15:21:12.769Z,21.40
2018-05-08T15:23:40.263Z,21.30
2018-05-08T15:26:11.295Z,21.30
2018-05-08T15:28:38.797Z,22.00
2018-05-08T15:31:07.061Z,22.00
2018-05-08T15:33:34.560Z,22.10
2018-05-08T15:36:02.058Z,21.60
2018-05-08T15:38:29.561Z,21.20
2018-05-08T15:40:57.143Z,21.40
2018-05-08T15:43:24.595Z,22.00
2018-05-08T15:45:52.127Z,21.40
2018-05-08T15:48:20.409Z,21.30
2018-05-08T15:50:48.665Z,21.30
2018-05-08T15:53:16.147Z,21.30
2018-05-08T15:55:43.603Z,21.30
2018-05-08T15:58:11.881Z,21.70
2018-05-08T16:00:39.429Z,21.70
2018-05-08T16:03:07.854Z,21.30
2018-05-08T16:05:35.379Z,21.30
2018-05-08T16:08:02.909Z,21.30
2018-05-08T16:10:30.433Z,21.30
2018-05-08T16:12:57.904Z,21.30
2018-05-08T16:15:25.489Z,21.30
2018-05-08T16:17:53.762Z,21.80
2018-05-08T16:20:22.014Z,22.40
2018-05-08T16:22:49.503Z,22.50
2018-05-08T16:25:17.801Z,23.20
2018-05-08T16:27:45.421Z,23.30
2018-05-08T16:30:14.559Z,26.40
2018-05-08T16:32:42.918Z,24.80
2018-05-08T16:35:11.189Z,25.10
2018-05-08T16:37:39.469Z,25.50
2018-05-08T16:40:07.732Z,26.20
2018-05-08T16:42:36.016Z,26.20
2018-05-08T16:45:04.288Z,26.20
2018-05-08T16:47:32.552Z,26.20
2018-05-08T16:50:00.042Z,26.20
2018-05-08T16:52:27.575Z,26.20
2018-05-08T16:54:55.850Z,26.20
2018-05-08T16:57:24.104Z,26.20
2018-05-08T16:59:51.672Z,26.20
2018-05-08T17:02:19.172Z,26.20
2018-05-08T17:04:46.692Z,26.20
2018-05-08T17:07:14.188Z,26.20
2018-05-08T17:09:41.710Z,26.20
2018-05-08T17:12:09.940Z,26.50
2018-05-08T17:14:37.558Z,26.60
2018-05-08T17:17:05.839Z,26.20
2018-05-08T17:19:33.445Z,26.20
2018-05-08T17:22:00.972Z,26.20
2018-05-08T17:24:28.487Z,26.20
2018-05-08T17:26:55.972Z,26.80
2018-05-08T17:29:23.620Z,26.30
2018-05-08T17:31:51.207Z,26.10
2018-05-08T17:34:18.691Z,26.20
2018-05-08T17:36:47.088Z,26.20
2018-05-08T17:39:14.573Z,26.20
2018-05-08T17:41:42.070Z,26.20
2018-05-08T17:44:09.559Z,26.10
2018-05-08T17:46:37.063Z,26.70
2018-05-08T17:49:05.387Z,26.20
2018-05-08T17:51:32.918Z,26.20
2018-05-08T17:54:00.533Z,26.20
2018-05-08T17:56:28.815Z,26.40
2018-05-08T17:58:56.295Z,26.40
2018-05-08T18:01:23.828Z,26.30
2018-05-08T18:03:51.377Z,27.00
2018-05-08T18:06:19.627Z,27.40
2018-05-08T18:08:47.181Z,27.40
2018-05-08T18:11:14.856Z,27.60
2018-05-08T18:13:42.327Z,27.40
2018-05-08T18:16:10.575Z,27.60
2018-05-08T18:18:40.926Z,27.60
2018-05-08T18:21:09.202Z,27.50
2018-05-08T18:23:37.501Z,27.60
2018-05-08T18:26:04.999Z,27.60
2018-05-08T18:28:33.241Z,27.20
2018-05-08T18:31:00.739Z,27.20
2018-05-08T18:33:28.281Z,27.40
2018-05-08T18:35:55.760Z,27.20
2018-05-08T18:38:23.361Z,27.10
2018-05-08T18:40:50.855Z,27.10
2018-05-08T18:43:19.330Z,27.20
2018-05-08T18:45:46.828Z,27.00
2018-05-08T18:48:15.125Z,26.90
2018-05-08T18:50:42.664Z,26.90
2018-05-08T18:53:10.942Z,26.50
2018-05-08T18:55:38.449Z,26.60
2018-05-08T18:58:05.944Z,26.80
2018-05-08T19:00:40.089Z,26.60
2018-05-08T19:03:07.616Z,26.70
2018-05-08T19:05:35.873Z,26.40
2018-05-08T19:08:03.374Z,26.40
2018-05-08T19:10:30.896Z,37.90
2018-05-08T19:12:59.171Z,30.20
2018-05-08T19:15:33.101Z,29.40
2018-05-08T19:18:00.621Z,29.40
2018-05-08T19:20:29.730Z,28.80
2018-05-08T19:22:58.009Z,28.10
2018-05-08T19:25:26.245Z,27.70
2018-05-08T19:27:53.801Z,27.70
2018-05-08T19:30:27.058Z,27.10
2018-05-08T19:32:54.593Z,27.00
2018-05-08T19:35:28.592Z,26.90
2018-05-08T19:38:02.751Z,26.90
2018-05-08T19:40:30.259Z,26.90
2018-05-08T19:42:57.767Z,26.60
2018-05-08T19:45:25.299Z,26.50
2018-05-08T19:47:52.797Z,26.50
2018-05-08T19:50:20.329Z,26.50
2018-05-08T19:52:47.830Z,26.50
2018-05-08T19:55:15.342Z,27.00
2018-05-08T19:57:42.859Z,26.40
2018-05-08T20:00:11.120Z,27.30
2018-05-08T20:02:38.662Z,27.30
2018-05-08T20:05:06.197Z,28.00
2018-05-08T20:07:33.725Z,28.50
2018-05-08T20:10:01.987Z,29.70
2018-05-08T20:12:30.239Z,28.30
2018-05-08T20:14:57.731Z,28.30
2018-05-08T20:17:25.998Z,28.60
2018-05-08T20:19:54.282Z,29.00
2018-05-08T20:22:21.762Z,29.00
2018-05-08T20:24:49.257Z,29.20
2018-05-08T20:27:16.779Z,30.00
2018-05-08T20:29:44.263Z,28.40
2018-05-08T20:32:11.779Z,28.20
2018-05-08T20:34:39.292Z,27.60
2018-05-08T20:37:08.321Z,27.20
2018-05-08T20:39:35.831Z,27.30
2018-05-08T20:42:03.341Z,28.00
2018-05-08T20:44:30.809Z,27.10
2018-05-08T20:46:58.351Z,26.10
2018-05-08T20:49:26.030Z,26.00
2018-05-08T20:51:53.523Z,26.00
2018-05-08T20:54:21.030Z,26.00
2018-05-08T20:56:49.300Z,26.00
2018-05-08T20:59:17.577Z,26.00
2018-05-08T21:01:45.847Z,26.00
2018-05-08T21:04:14.107Z,26.60
2018-05-08T21:06:42.377Z,27.10
2018-05-08T21:09:09.961Z,26.60
2018-05-08T21:11:37.433Z,26.00
2018-05-08T21:14:04.987Z,26.00
2018-05-08T21:16:32.476Z,26.00
2018-05-08T21:18:59.981Z,26.00
2018-05-08T21:21:28.249Z,26.70
2018-05-08T21:23:55.823Z,26.70
2018-05-08T21:26:24.110Z,26.00
2018-05-08T21:28:57.411Z,26.00
2018-05-08T21:31:24.987Z,25.90
2018-05-08T21:33:52.515Z,25.90
2018-05-08T21:36:20.834Z,25.90
2018-05-08T21:38:49.065Z,25.90
2018-05-08T21:41:17.341Z,25.90
2018-05-08T21:43:45.600Z,25.90
2018-05-08T21:46:13.125Z,25.90
2018-05-08T21:48:40.724Z,26.50
2018-05-08T21:51:08.212Z,25.90
2018-05-08T21:53:35.741Z,25.90
2018-05-08T21:56:04.012Z,25.90
2018-05-08T21:58:32.315Z,25.90
2018-05-08T22:00:59.785Z,25.90
2018-05-08T22:03:27.297Z,25.90
2018-05-08T22:05:54.769Z,25.90
2018-05-08T22:08:23.033Z,25.90
2018-05-08T22:10:50.614Z,25.80
2018-05-08T22:13:18.871Z,25.80
2018-05-08T22:15:46.477Z,25.80
2018-05-08T22:18:14.708Z,25.80
2018-05-08T22:20:43.013Z,25.80
2018-05-08T22:23:10.562Z,25.80
2018-05-08T22:25:38.928Z,26.10
2018-05-08T22:28:07.196Z,28.30
2018-05-08T22:30:35.453Z,27.10
2018-05-08T22:33:02.957Z,27.10
2018-05-08T22:35:30.473Z,27.30
2018-05-08T22:37:58.710Z,27.80
2018-05-08T22:40:26.197Z,27.80
2018-05-08T22:42:53.682Z,27.70
2018-05-08T22:45:21.190Z,26.50
2018-05-08T22:47:48.686Z,26.80
2018-05-08T22:50:16.206Z,26.40
2018-05-08T22:52:43.685Z,26.80
2018-05-08T22:55:11.291Z,26.60
2018-05-08T22:57:38.798Z,26.70
2018-05-08T23:00:06.313Z,26.90
2018-05-08T23:02:33.871Z,27.00
2018-05-08T23:05:01.373Z,26.90
2018-05-08T23:07:28.847Z,26.90
2018-05-08T23:09:56.366Z,26.90
2018-05-08T23:12:23.850Z,27.20
2018-05-08T23:14:51.339Z,27.30
2018-05-08T23:17:19.635Z,27.10
2018-05-08T23:19:47.187Z,27.10
2018-05-08T23:22:15.434Z,27.20
2018-05-08T23:24:42.960Z,27.30
2018-05-08T23:27:10.457Z,27.10
2018-05-08T23:29:37.978Z,27.30
2018-05-08T23:32:05.473Z,27.60
2018-05-08T23:34:33.784Z,27.40
2018-05-08T23:37:01.327Z,27.50
2018-05-08T23:39:29.595Z,27.10
2018-05-08T23:41:57.097Z,27.10
2018-05-08T23:44:24.628Z,27.10
2018-05-08T23:46:52.897Z,27.30
2018-05-08T23:49:21.175Z,27.10
2018-05-08T23:51:49.465Z,27.20
2018-05-08T23:54:17.015Z,27.20
2018-05-08T23:56:44.567Z,27.40
2018-05-08T23:59:12.839Z,27.80
